X  Schlie├čen METAR Luftfahrt Wetterdaten        LDPL Pula
Temperatur
34°C Temperatur
18°C Taupunkt
39% Feuchtigkeit



Wind
13 KM/S
8 MPS
4 M/S
7 KTS



90°
O
Aktuelle Wetterlage

Mostly Sunny Meist sonnig
Luftdruck 1013 (hPa) - 29.93 (inHg)
Sichtweite 6 (Meile) - 10 (Km)
Flughafen
Flughafen Code LDPL

Position : Pula
Entfernung: 39 (Km)

Metar:
METAR LDPL 171000Z 09007KT 060V150 CAVOK 34/18 Q1014 NOSIG

Zeit: 17-07-2024 12:00 CEST